createdAt,value
2019-04-10T00:00:53.644Z,0
2019-04-10T00:01:53.471Z,0
2019-04-10T00:02:53.564Z,0
2019-04-10T00:03:53.160Z,0
2019-04-10T00:04:53.426Z,0
2019-04-10T00:05:52.688Z,0
2019-04-10T00:06:52.824Z,0
2019-04-10T00:07:53.498Z,0
2019-04-10T00:08:54.614Z,0
2019-04-10T00:09:54.863Z,0
2019-04-10T00:10:52.763Z,0
2019-04-10T00:11:53.819Z,0
2019-04-10T00:12:52.360Z,0
2019-04-10T00:13:53.836Z,0
2019-04-10T00:14:53.163Z,0
2019-04-10T00:15:53.620Z,0
2019-04-10T00:16:54.582Z,0
2019-04-10T00:17:53.676Z,0
2019-04-10T00:18:53.960Z,0
2019-04-10T00:19:52.325Z,0
2019-04-10T00:20:53.823Z,0
2019-04-10T00:21:53.524Z,0
2019-04-10T00:22:53.472Z,0
2019-04-10T00:23:53.942Z,0
2019-04-10T00:24:53.218Z,0
2019-04-10T00:25:53.581Z,0
2019-04-10T00:26:52.862Z,0
2019-04-10T00:27:53.128Z,0
2019-04-10T00:28:52.338Z,0
2019-04-10T00:29:54.772Z,0
2019-04-10T00:30:53.486Z,0
2019-04-10T00:31:54.201Z,0
2019-04-10T00:32:52.826Z,0
2019-04-10T00:33:53.731Z,0
2019-04-10T00:34:52.584Z,0
2019-04-10T00:35:52.432Z,0
2019-04-10T00:36:53.849Z,0
2019-04-10T00:37:52.021Z,0
2019-04-10T00:38:53.844Z,0
2019-04-10T00:39:53.465Z,0
2019-04-10T00:40:52.996Z,0
2019-04-10T00:41:53.178Z,0
2019-04-10T00:42:52.245Z,0
2019-04-10T00:43:55.147Z,0
2019-04-10T00:44:52.833Z,0
2019-04-10T00:45:53.935Z,0
2019-04-10T00:46:54.735Z,0
2019-04-10T00:47:53.511Z,0
2019-04-10T00:48:52.730Z,0
2019-04-10T00:49:53.653Z,0
2019-04-10T00:50:53.726Z,0
2019-04-10T00:51:52.464Z,0
2019-04-10T00:52:53.344Z,0
2019-04-10T00:53:52.244Z,0
2019-04-10T00:54:53.434Z,0
2019-04-10T00:55:52.857Z,0
2019-04-10T00:56:53.351Z,0
2019-04-10T00:57:52.553Z,0
2019-04-10T00:58:53.680Z,0
2019-04-10T00:59:53.204Z,0
2019-04-10T01:00:55.012Z,0
2019-04-10T01:01:52.896Z,0
2019-04-10T01:02:53.409Z,0
2019-04-10T01:03:56.501Z,0
2019-04-10T01:04:53.598Z,0
2019-04-10T01:05:53.709Z,0
2019-04-10T01:06:52.967Z,0
2019-04-10T01:07:54.372Z,0
2019-04-10T01:08:53.506Z,0
2019-04-10T01:09:53.410Z,0
2019-04-10T01:10:53.010Z,0
2019-04-10T01:11:52.316Z,0
2019-04-10T01:12:52.901Z,0
2019-04-10T01:13:53.704Z,0
2019-04-10T01:14:52.562Z,0
2019-04-10T01:15:53.545Z,0
2019-04-10T01:16:52.370Z,0
2019-04-10T01:17:54.785Z,0
2019-04-10T01:18:53.692Z,0
2019-04-10T01:19:52.851Z,0
2019-04-10T01:20:53.568Z,0
2019-04-10T01:21:54.776Z,0
2019-04-10T01:22:52.718Z,0
2019-04-10T01:23:53.810Z,0
2019-04-10T01:24:53.015Z,0
2019-04-10T01:25:54.448Z,0
2019-04-10T01:26:53.727Z,0
2019-04-10T01:27:52.785Z,0
2019-04-10T01:28:54.209Z,0
2019-04-10T01:29:54.369Z,0
2019-04-10T01:30:53.495Z,0
2019-04-10T01:31:53.621Z,0
2019-04-10T01:32:52.652Z,0
2019-04-10T01:33:54.727Z,0
2019-04-10T01:34:52.421Z,0
2019-04-10T01:35:54.313Z,0
2019-04-10T01:36:53.173Z,0
2019-04-10T01:38:09.178Z,0
2019-04-10T01:38:54.279Z,0
2019-04-10T01:39:53.312Z,0
2019-04-10T01:40:53.558Z,0
2019-04-10T01:41:52.837Z,0
2019-04-10T01:43:20.001Z,0
2019-04-10T01:43:53.578Z,0
2019-04-10T01:44:53.330Z,0
2019-04-10T01:45:54.255Z,0
2019-04-10T01:46:53.527Z,0
2019-04-10T01:47:53.611Z,0
2019-04-10T01:48:53.443Z,0
2019-04-10T01:49:56.105Z,0
2019-04-10T01:50:53.303Z,0
2019-04-10T01:51:52.736Z,0
2019-04-10T01:52:53.317Z,0
2019-04-10T01:53:54.371Z,0
2019-04-10T01:54:53.960Z,0
2019-04-10T01:55:53.393Z,0
2019-04-10T01:56:53.219Z,0
2019-04-10T01:57:53.501Z,0
2019-04-10T01:58:52.386Z,0
2019-04-10T01:59:54.180Z,0
2019-04-10T02:00:53.910Z,0
2019-04-10T02:01:52.934Z,0
2019-04-10T02:02:53.785Z,0
2019-04-10T02:03:52.418Z,0
2019-04-10T02:04:56.746Z,0
2019-04-10T02:05:52.604Z,0
2019-04-10T02:06:52.054Z,0
2019-04-10T02:08:17.813Z,0
2019-04-10T02:08:52.404Z,0
2019-04-10T02:09:53.870Z,0
2019-04-10T02:10:52.753Z,0
2019-04-10T02:11:54.372Z,0
2019-04-10T02:12:53.296Z,0
2019-04-10T02:13:52.258Z,0
2019-04-10T02:14:52.278Z,0
2019-04-10T02:15:53.234Z,0
2019-04-10T02:16:52.436Z,0
2019-04-10T02:17:52.925Z,0
2019-04-10T02:18:53.797Z,0
2019-04-10T02:19:53.025Z,0
2019-04-10T02:20:53.532Z,0
2019-04-10T02:21:52.306Z,0
2019-04-10T02:22:52.788Z,0
2019-04-10T02:23:52.686Z,0
2019-04-10T02:24:52.104Z,0
2019-04-10T02:25:52.798Z,0
2019-04-10T02:26:53.965Z,0
2019-04-10T02:27:54.360Z,0
2019-04-10T02:28:51.831Z,0
2019-04-10T02:29:53.225Z,0
2019-04-10T02:30:54.706Z,0
2019-04-10T02:31:57.510Z,0
2019-04-10T02:32:57.948Z,0
2019-04-10T02:33:53.612Z,0
2019-04-10T02:34:58.169Z,0
2019-04-10T02:35:53.092Z,0
2019-04-10T02:36:58.564Z,0
2019-04-10T02:38:11.259Z,0
2019-04-10T02:39:40.431Z,0
2019-04-10T02:40:10.150Z,0
2019-04-10T02:41:03.342Z,0
2019-04-10T02:42:02.638Z,0
2019-04-10T02:43:01.093Z,0
2019-04-10T02:44:00.397Z,0
2019-04-10T02:45:02.036Z,0
2019-04-10T02:46:02.586Z,0
2019-04-10T02:47:05.007Z,0
2019-04-10T02:48:02.179Z,0
2019-04-10T02:49:04.033Z,0
2019-04-10T02:50:00.960Z,0
2019-04-10T02:51:02.032Z,0
2019-04-10T02:52:01.378Z,0
2019-04-10T02:53:03.265Z,0
2019-04-10T02:54:04.771Z,0
2019-04-10T02:55:02.058Z,0
2019-04-10T02:56:03.171Z,0
2019-04-10T02:57:01.356Z,0
2019-04-10T02:58:03.619Z,0
2019-04-10T02:58:59.310Z,0
2019-04-10T03:00:05.162Z,0
2019-04-10T03:01:01.732Z,0
2019-04-10T03:02:04.149Z,0
2019-04-10T03:03:05.356Z,0
2019-04-10T03:04:03.298Z,0
2019-04-10T03:05:01.734Z,0
2019-04-10T03:05:59.397Z,0
2019-04-10T03:07:04.348Z,0
2019-04-10T03:08:04.529Z,0
2019-04-10T03:10:05.612Z,0
2019-04-10T03:11:03.701Z,0
2019-04-10T03:11:37.653Z,0
2019-04-10T03:12:36.206Z,0
2019-04-10T03:13:37.966Z,0
2019-04-10T03:14:36.656Z,0
2019-04-10T03:15:36.126Z,0
2019-04-10T03:16:31.933Z,0
2019-04-10T03:17:33.239Z,0
2019-04-10T03:18:33.067Z,0
2019-04-10T03:19:32.480Z,0
2019-04-10T03:20:32.275Z,0
2019-04-10T03:21:31.676Z,0
2019-04-10T03:22:34.909Z,0
2019-04-10T03:23:32.112Z,0
2019-04-10T03:24:32.211Z,0
2019-04-10T03:25:33.618Z,0
2019-04-10T03:26:33.692Z,0
2019-04-10T03:27:32.668Z,0
2019-04-10T03:28:33.272Z,0
2019-04-10T03:29:32.047Z,0
2019-04-10T03:30:36.395Z,0
2019-04-10T03:31:38.930Z,0
2019-04-10T03:32:55.723Z,0
2019-04-10T03:33:47.379Z,0
2019-04-10T03:34:45.199Z,0
2019-04-10T03:35:32.618Z,0
2019-04-10T03:36:31.955Z,0
2019-04-10T03:37:31.949Z,0
2019-04-10T03:38:32.376Z,0
2019-04-10T03:39:37.145Z,0
2019-04-10T03:40:31.692Z,0
2019-04-10T03:41:33.183Z,0
2019-04-10T03:42:33.438Z,0
2019-04-10T03:43:32.588Z,0
2019-04-10T03:44:32.849Z,0
2019-04-10T03:45:31.333Z,0
2019-04-10T03:46:33.228Z,0
2019-04-10T03:47:32.066Z,0
2019-04-10T03:48:32.112Z,0
2019-04-10T03:49:32.653Z,0
2019-04-10T03:50:32.085Z,0
2019-04-10T03:51:33.063Z,0
2019-04-10T03:52:32.034Z,0
2019-04-10T03:53:32.366Z,0
2019-04-10T03:54:32.153Z,0
2019-04-10T03:55:32.695Z,0
2019-04-10T03:56:32.406Z,0
2019-04-10T03:57:31.807Z,0
2019-04-10T03:58:32.137Z,0
2019-04-10T03:59:31.026Z,0
2019-04-10T04:00:32.622Z,0
2019-04-10T04:01:32.093Z,0
2019-04-10T04:02:32.150Z,0
2019-04-10T04:03:32.870Z,0
2019-04-10T04:04:31.628Z,0
2019-04-10T04:05:31.254Z,0
2019-04-10T04:06:31.406Z,0
2019-04-10T04:07:35.198Z,0
2019-04-10T04:08:32.536Z,0
2019-04-10T04:09:31.845Z,0
2019-04-10T04:10:31.521Z,0
2019-04-10T04:11:31.776Z,0
2019-04-10T04:12:31.459Z,0
2019-04-10T04:13:33.454Z,0
2019-04-10T04:14:31.156Z,0
2019-04-10T04:15:31.331Z,0
2019-04-10T04:16:31.445Z,0
2019-04-10T04:17:30.869Z,0
2019-04-10T04:18:33.194Z,0
2019-04-10T04:19:32.374Z,4
2019-04-10T04:20:31.393Z,4
2019-04-10T04:21:30.824Z,4
2019-04-10T04:22:33.225Z,0
2019-04-10T04:23:32.216Z,4
2019-04-10T04:24:34.011Z,4
2019-04-10T04:25:31.026Z,4
2019-04-10T04:26:33.752Z,4
2019-04-10T04:27:31.715Z,4
2019-04-10T04:28:31.941Z,4
2019-04-10T04:29:32.760Z,8
2019-04-10T04:30:32.166Z,8
2019-04-10T04:31:31.630Z,8
2019-04-10T04:32:31.594Z,12
2019-04-10T04:33:32.129Z,12
2019-04-10T04:34:32.187Z,16
2019-04-10T04:35:32.192Z,16
2019-04-10T04:36:31.534Z,16
2019-04-10T04:37:31.284Z,16
2019-04-10T04:38:32.396Z,20
2019-04-10T04:39:37.419Z,20
2019-04-10T04:40:33.339Z,20
2019-04-10T04:41:32.412Z,24
2019-04-10T04:42:31.636Z,28
2019-04-10T04:43:33.006Z,32
2019-04-10T04:44:31.847Z,36
2019-04-10T04:45:30.952Z,40
2019-04-10T04:46:30.680Z,52
2019-04-10T04:47:31.328Z,60
2019-04-10T04:48:31.846Z,64
2019-04-10T04:49:31.484Z,72
2019-04-10T04:50:31.893Z,80
2019-04-10T04:51:34.611Z,92
2019-04-10T04:52:30.931Z,100
2019-04-10T04:53:30.881Z,108
2019-04-10T04:54:31.082Z,116
2019-04-10T04:55:31.411Z,128
2019-04-10T04:56:31.698Z,140
2019-04-10T04:57:34.054Z,148
2019-04-10T04:58:31.268Z,160
2019-04-10T04:59:31.113Z,176
2019-04-10T05:00:31.944Z,188
2019-04-10T05:01:32.024Z,200
2019-04-10T05:02:32.088Z,208
2019-04-10T05:03:33.881Z,224
2019-04-10T05:04:35.536Z,232
2019-04-10T05:05:32.305Z,240
2019-04-10T05:06:31.497Z,252
2019-04-10T05:07:31.637Z,256
2019-04-10T05:08:31.063Z,268
2019-04-10T05:09:44.646Z,280
2019-04-10T05:10:32.062Z,292
2019-04-10T05:11:30.952Z,308
2019-04-10T05:12:31.800Z,324
2019-04-10T05:13:31.313Z,340
2019-04-10T05:14:31.904Z,356
2019-04-10T05:15:33.161Z,368
2019-04-10T05:16:33.073Z,384
2019-04-10T05:17:31.125Z,400
2019-04-10T05:18:32.190Z,416
2019-04-10T05:19:30.799Z,420
2019-04-10T05:20:51.043Z,424
2019-04-10T05:21:32.834Z,428
2019-04-10T05:22:31.779Z,428
2019-04-10T05:23:31.393Z,436
2019-04-10T05:24:32.407Z,448
2019-04-10T05:25:32.041Z,460
2019-04-10T05:26:30.940Z,480
2019-04-10T05:27:32.965Z,508
2019-04-10T05:28:33.192Z,544
2019-04-10T05:29:35.391Z,584
2019-04-10T05:30:31.731Z,608
2019-04-10T05:31:30.674Z,636
2019-04-10T05:32:30.942Z,668
2019-04-10T05:33:31.890Z,700
2019-04-10T05:34:30.694Z,732
2019-04-10T05:35:31.711Z,768
2019-04-10T05:36:31.759Z,792
2019-04-10T05:37:32.047Z,816
2019-04-10T05:38:31.843Z,832
2019-04-10T05:39:53.849Z,864
2019-04-10T05:40:31.047Z,880
2019-04-10T05:41:31.757Z,920
2019-04-10T05:42:31.704Z,964
2019-04-10T05:43:30.960Z,1012
2019-04-10T05:44:31.862Z,1064
2019-04-10T05:45:31.639Z,1108
2019-04-10T05:46:33.078Z,1156
2019-04-10T05:47:31.001Z,1192
2019-04-10T05:48:33.651Z,1232
2019-04-10T05:49:31.562Z,1264
2019-04-10T05:50:30.588Z,1288
2019-04-10T05:51:31.075Z,1308
2019-04-10T05:52:31.245Z,1324
2019-04-10T05:53:32.361Z,1332
2019-04-10T05:54:31.888Z,1344
2019-04-10T05:55:31.793Z,1352
2019-04-10T05:56:30.681Z,1360
2019-04-10T05:57:32.799Z,1360
2019-04-10T05:58:31.771Z,1368
2019-04-10T05:59:30.850Z,1364
2019-04-10T06:00:32.636Z,1372
2019-04-10T06:01:48.524Z,1380
2019-04-10T06:02:30.277Z,1392
2019-04-10T06:03:32.937Z,1408
2019-04-10T06:04:31.839Z,1416
2019-04-10T06:05:32.327Z,1424
2019-04-10T06:06:32.525Z,1420
2019-04-10T06:07:30.546Z,1408
2019-04-10T06:08:31.208Z,1396
2019-04-10T06:09:31.229Z,1376
2019-04-10T06:10:32.552Z,1360
2019-04-10T06:11:33.025Z,1344
2019-04-10T06:12:31.495Z,1324
2019-04-10T06:13:30.714Z,1304
2019-04-10T06:14:32.710Z,1276
2019-04-10T06:15:31.126Z,1260
2019-04-10T06:16:30.907Z,1236
2019-04-10T06:17:32.608Z,1200
2019-04-10T06:18:31.904Z,1160
2019-04-10T06:19:34.824Z,1112
2019-04-10T06:20:31.665Z,1068
2019-04-10T06:21:33.856Z,1036
2019-04-10T06:22:31.233Z,1040
2019-04-10T06:23:31.406Z,1072
2019-04-10T06:24:32.746Z,1120
2019-04-10T06:25:38.524Z,1184
2019-04-10T06:26:32.706Z,1248
2019-04-10T06:27:30.906Z,1304
2019-04-10T06:28:37.919Z,1348
2019-04-10T06:29:31.560Z,1372
2019-04-10T06:30:30.820Z,1396
2019-04-10T06:31:30.936Z,1416
2019-04-10T06:32:31.600Z,1432
2019-04-10T06:33:34.242Z,1452
2019-04-10T06:34:30.496Z,1476
2019-04-10T06:35:32.170Z,1516
2019-04-10T06:36:31.667Z,1572
2019-04-10T06:37:31.100Z,1648
2019-04-10T06:38:31.116Z,1748
2019-04-10T06:39:32.994Z,1892
2019-04-10T06:40:35.638Z,2060
2019-04-10T06:41:31.238Z,2200
2019-04-10T06:42:43.512Z,2348
2019-04-10T06:43:31.222Z,2496
2019-04-10T06:44:30.478Z,2636
2019-04-10T06:45:31.566Z,2712
2019-04-10T06:46:32.603Z,2784
2019-04-10T06:47:31.527Z,2868
2019-04-10T06:48:30.585Z,2948
2019-04-10T06:49:31.710Z,3016
2019-04-10T06:50:32.899Z,3064
2019-04-10T06:51:30.055Z,3096
2019-04-10T06:52:32.808Z,3128
2019-04-10T06:53:31.384Z,3160
2019-04-10T06:54:31.610Z,3168
2019-04-10T06:55:30.749Z,3208
2019-04-10T06:56:31.554Z,3276
2019-04-10T06:57:30.553Z,3292
2019-04-10T06:58:31.864Z,3288
2019-04-10T06:59:30.865Z,3268
2019-04-10T07:00:31.035Z,3232
2019-04-10T07:01:56.958Z,3164
2019-04-10T07:02:39.179Z,3136
2019-04-10T07:04:07.302Z,3136
2019-04-10T07:04:52.927Z,3116
2019-04-10T07:06:09.519Z,3076
2019-04-10T07:07:13.846Z,3052
2019-04-10T07:07:58.761Z,3040
2019-04-10T07:08:32.318Z,3036
2019-04-10T07:09:35.727Z,3020
2019-04-10T07:11:08.507Z,2980
2019-04-10T07:11:37.257Z,2960
2019-04-10T07:12:37.485Z,2932
2019-04-10T07:13:30.817Z,2904
2019-04-10T07:14:33.031Z,2880
2019-04-10T07:15:31.867Z,2856
2019-04-10T07:16:38.420Z,2840
2019-04-10T07:17:35.461Z,2828
2019-04-10T07:18:31.195Z,2808
2019-04-10T07:19:32.334Z,2784
2019-04-10T07:20:31.970Z,2764
2019-04-10T07:21:38.641Z,2748
2019-04-10T07:22:31.172Z,2736
2019-04-10T07:23:38.984Z,2712
2019-04-10T07:24:34.265Z,2696
2019-04-10T07:25:31.923Z,2676
2019-04-10T07:26:50.936Z,2652
2019-04-10T07:27:38.542Z,2636
2019-04-10T07:28:33.183Z,2608
2019-04-10T07:29:36.556Z,2568
2019-04-10T07:30:33.962Z,2556
2019-04-10T07:31:37.570Z,2572
2019-04-10T07:32:32.583Z,2568
2019-04-10T07:33:31.399Z,2560
2019-04-10T07:34:34.735Z,2552
2019-04-10T07:35:40.143Z,2540
2019-04-10T07:36:31.110Z,2536
2019-04-10T07:37:31.966Z,2532
2019-04-10T07:38:30.867Z,2536
2019-04-10T07:39:37.555Z,2540
2019-04-10T07:40:32.950Z,2540
2019-04-10T07:41:34.156Z,2540
2019-04-10T07:42:46.246Z,2536
2019-04-10T07:43:36.397Z,2540
2019-04-10T07:44:30.307Z,2544
2019-04-10T07:45:35.379Z,2556
2019-04-10T07:46:31.204Z,2572
2019-04-10T07:47:31.679Z,2584
2019-04-10T07:48:29.834Z,2592
2019-04-10T07:49:39.484Z,2600
2019-04-10T07:50:30.898Z,2604
2019-04-10T07:51:30.190Z,2620
2019-04-10T07:52:33.019Z,2640
2019-04-10T07:53:31.543Z,2664
2019-04-10T07:54:31.461Z,2684
2019-04-10T07:55:31.241Z,2708
2019-04-10T07:56:31.314Z,2744
2019-04-10T07:57:31.162Z,2764
2019-04-10T07:58:31.779Z,2772
2019-04-10T07:59:31.203Z,2788
2019-04-10T08:00:34.548Z,2828
2019-04-10T08:01:31.573Z,2888
2019-04-10T08:02:30.068Z,2964
2019-04-10T08:03:31.236Z,3032
2019-04-10T08:04:29.712Z,3092
2019-04-10T08:05:29.977Z,3160
2019-04-10T08:06:30.506Z,3204
2019-04-10T08:07:43.078Z,3276
2019-04-10T08:08:30.785Z,3320
2019-04-10T08:09:29.690Z,3388
2019-04-10T08:10:31.343Z,3468
2019-04-10T08:11:31.994Z,3552
2019-04-10T08:12:53.742Z,3652
2019-04-10T08:13:31.101Z,3696
2019-04-10T08:14:32.231Z,3756
2019-04-10T08:15:29.776Z,3824
2019-04-10T08:16:30.755Z,3896
2019-04-10T08:17:31.022Z,3976
2019-04-10T08:18:30.079Z,4060
2019-04-10T08:19:34.698Z,4144
2019-04-10T08:20:30.997Z,4212
2019-04-10T08:21:31.933Z,4280
2019-04-10T08:22:31.261Z,4340
2019-04-10T08:23:30.859Z,4396
2019-04-10T08:24:30.929Z,4464
2019-04-10T08:25:31.423Z,4528
2019-04-10T08:26:30.500Z,4588
2019-04-10T08:27:30.665Z,4664
2019-04-10T08:28:35.203Z,4764
2019-04-10T08:29:30.848Z,4856
2019-04-10T08:30:32.051Z,4932
2019-04-10T08:31:31.165Z,5000
2019-04-10T08:32:30.810Z,5064
2019-04-10T08:33:30.527Z,5108
2019-04-10T08:34:31.435Z,5132
2019-04-10T08:35:29.666Z,5160
2019-04-10T08:36:31.760Z,5204
2019-04-10T08:37:32.523Z,5236
2019-04-10T08:38:32.438Z,5236
2019-04-10T08:39:52.601Z,5240
2019-04-10T08:40:30.427Z,5264
2019-04-10T08:41:33.020Z,5348
2019-04-10T08:42:31.000Z,5444
2019-04-10T08:43:34.047Z,5540
2019-04-10T08:44:30.228Z,5592
2019-04-10T08:45:52.014Z,5620
2019-04-10T08:46:30.889Z,5636
2019-04-10T08:47:30.029Z,5676
2019-04-10T08:48:35.523Z,5804
2019-04-10T08:49:30.711Z,5984
2019-04-10T08:50:30.771Z,6192
2019-04-10T08:51:31.033Z,6376
2019-04-10T08:52:31.044Z,6532
2019-04-10T08:53:34.000Z,6668
2019-04-10T08:54:32.142Z,6780
2019-04-10T08:55:30.860Z,6884
2019-04-10T08:56:30.405Z,6992
2019-04-10T08:57:30.470Z,7096
2019-04-10T08:58:30.713Z,7200
2019-04-10T08:59:31.895Z,7312
2019-04-10T09:00:32.274Z,7444
2019-04-10T09:01:29.684Z,7560
2019-04-10T09:02:30.733Z,7672
2019-04-10T09:03:29.494Z,7780
2019-04-10T09:04:31.235Z,7896
2019-04-10T09:05:30.736Z,7996
2019-04-10T09:06:30.028Z,8084
2019-04-10T09:07:30.570Z,8164
2019-04-10T09:08:29.436Z,8208
2019-04-10T09:09:30.633Z,8200
2019-04-10T09:10:30.849Z,8152
2019-04-10T09:11:37.800Z,8116
2019-04-10T09:12:31.775Z,8148
2019-04-10T09:13:30.947Z,8184
2019-04-10T09:14:32.927Z,8240
2019-04-10T09:15:30.617Z,8296
2019-04-10T09:16:31.054Z,8344
2019-04-10T09:17:31.231Z,8324
2019-04-10T09:18:30.042Z,8316
2019-04-10T09:19:30.537Z,8364
2019-04-10T09:20:31.179Z,8480
2019-04-10T09:21:31.694Z,8596
2019-04-10T09:22:41.819Z,8712
2019-04-10T09:23:57.405Z,8928
2019-04-10T09:24:30.176Z,9000
2019-04-10T09:25:29.869Z,9096
2019-04-10T09:26:30.732Z,9124
2019-04-10T09:27:29.401Z,9096
2019-04-10T09:28:29.149Z,9012
2019-04-10T09:29:32.719Z,8908
2019-04-10T09:30:29.644Z,8868
2019-04-10T09:31:31.866Z,8924
2019-04-10T09:32:31.001Z,8992
2019-04-10T09:33:37.300Z,8992
2019-04-10T09:34:30.448Z,8892
2019-04-10T09:35:30.962Z,8752
2019-04-10T09:36:29.804Z,8648
2019-04-10T09:37:31.187Z,8592
2019-04-10T09:38:30.908Z,8580
2019-04-10T09:39:30.247Z,8640
2019-04-10T09:40:30.368Z,8780
2019-04-10T09:41:30.434Z,8760
2019-04-10T09:42:31.096Z,8676
2019-04-10T09:43:29.888Z,8832
2019-04-10T09:44:30.228Z,9000
2019-04-10T09:45:33.257Z,8884
2019-04-10T09:46:29.629Z,8816
2019-04-10T09:47:30.325Z,8860
2019-04-10T09:48:29.783Z,8940
2019-04-10T09:49:49.441Z,9032
2019-04-10T09:50:31.132Z,9120
2019-04-10T09:51:31.850Z,9232
2019-04-10T09:52:31.989Z,9184
2019-04-10T09:53:29.756Z,9116
2019-04-10T09:54:31.516Z,9228
2019-04-10T09:55:29.887Z,9412
2019-04-10T09:56:30.288Z,9560
2019-04-10T09:57:29.319Z,9832
2019-04-10T09:58:31.859Z,10048
2019-04-10T09:59:46.014Z,10232
2019-04-10T10:00:30.070Z,10376
2019-04-10T10:01:31.213Z,10484
2019-04-10T10:02:30.153Z,10480
2019-04-10T10:03:30.376Z,10404
2019-04-10T10:04:31.598Z,10136
2019-04-10T10:05:30.691Z,9792
2019-04-10T10:06:41.816Z,9352
2019-04-10T10:07:31.108Z,9068
2019-04-10T10:08:29.328Z,8892
2019-04-10T10:09:34.904Z,8648
2019-04-10T10:10:29.852Z,8300
2019-04-10T10:11:30.794Z,7688
2019-04-10T10:12:30.796Z,7056
2019-04-10T10:13:31.735Z,6808
2019-04-10T10:14:35.836Z,6700
2019-04-10T10:15:30.073Z,6844
2019-04-10T10:16:33.705Z,7232
2019-04-10T10:17:29.314Z,7580
2019-04-10T10:18:30.643Z,7640
2019-04-10T10:19:30.815Z,7772
2019-04-10T10:20:32.986Z,7776
2019-04-10T10:21:30.701Z,7648
2019-04-10T10:22:30.836Z,7604
2019-04-10T10:23:30.134Z,7804
2019-04-10T10:24:29.543Z,7960
2019-04-10T10:25:31.505Z,7936
2019-04-10T10:26:30.799Z,7968
2019-04-10T10:27:32.307Z,8024
2019-04-10T10:28:29.761Z,8068
2019-04-10T10:29:30.671Z,8208
2019-04-10T10:30:31.424Z,8284
2019-04-10T10:31:30.911Z,8348
2019-04-10T10:32:29.530Z,8440
2019-04-10T10:33:30.572Z,8508
2019-04-10T10:34:30.595Z,8404
2019-04-10T10:35:30.070Z,8148
2019-04-10T10:36:53.138Z,7644
2019-04-10T10:37:30.425Z,7460
2019-04-10T10:38:30.069Z,7344
2019-04-10T10:39:31.322Z,7428
2019-04-10T10:40:30.406Z,7496
2019-04-10T10:41:29.839Z,7592
2019-04-10T10:42:30.340Z,7668
2019-04-10T10:43:32.174Z,7932
2019-04-10T10:44:30.724Z,8200
2019-04-10T10:45:31.051Z,8188
2019-04-10T10:46:29.774Z,8124
2019-04-10T10:47:32.501Z,8284
2019-04-10T10:48:29.846Z,8344
2019-04-10T10:49:30.565Z,8208
2019-04-10T10:50:31.421Z,8108
2019-04-10T10:51:30.818Z,8172
2019-04-10T10:52:31.332Z,8376
2019-04-10T10:53:30.637Z,8620
2019-04-10T10:54:32.642Z,8636
2019-04-10T10:55:29.956Z,8288
2019-04-10T10:56:30.595Z,8184
2019-04-10T10:57:31.070Z,8112
2019-04-10T10:58:31.875Z,7876
2019-04-10T10:59:29.785Z,7864
2019-04-10T11:00:31.324Z,8216
2019-04-10T11:01:30.003Z,8828
2019-04-10T11:02:30.355Z,9256
2019-04-10T11:03:29.942Z,9420
2019-04-10T11:04:30.210Z,9520
2019-04-10T11:05:34.989Z,9916
2019-04-10T11:06:29.602Z,10148
2019-04-10T11:07:31.016Z,9920
2019-04-10T11:08:31.921Z,9676
2019-04-10T11:09:30.969Z,9536
2019-04-10T11:10:34.678Z,9672
2019-04-10T11:11:30.801Z,9968
2019-04-10T11:12:30.359Z,10240
2019-04-10T11:13:30.734Z,10400
2019-04-10T11:14:32.295Z,10704
2019-04-10T11:15:31.788Z,11132
2019-04-10T11:16:31.041Z,11468
2019-04-10T11:17:31.592Z,11504
2019-04-10T11:18:30.874Z,11472
2019-04-10T11:19:31.611Z,11548
2019-04-10T11:20:32.312Z,11680
2019-04-10T11:21:30.057Z,11696
2019-04-10T11:22:33.839Z,11792
2019-04-10T11:23:30.842Z,11888
2019-04-10T11:24:31.467Z,11780
2019-04-10T11:25:32.358Z,11640
2019-04-10T11:26:33.514Z,11524
2019-04-10T11:27:31.754Z,11408
2019-04-10T11:28:39.400Z,11140
2019-04-10T11:29:31.102Z,11028
2019-04-10T11:30:32.478Z,10948
2019-04-10T11:33:31.029Z,10576
2019-04-10T11:33:49.642Z,10572
2019-04-10T11:34:43.277Z,10536
2019-04-10T11:35:41.929Z,10572
2019-04-10T11:36:46.426Z,10628
2019-04-10T11:39:54.510Z,10300
2019-04-10T11:40:12.341Z,10288
2019-04-10T11:42:26.398Z,10580
2019-04-10T11:43:25.719Z,10816
2019-04-10T11:44:28.197Z,10900
2019-04-10T11:47:29.186Z,10732
2019-04-10T11:47:45.526Z,10704
2019-04-10T11:50:10.204Z,10836
2019-04-10T11:51:06.664Z,10812
2019-04-10T11:53:27.201Z,10856
2019-04-10T11:54:32.645Z,10784
2019-04-10T11:55:42.605Z,10688
2019-04-10T11:56:24.202Z,10588
2019-04-10T11:58:51.149Z,10180
2019-04-10T11:59:48.941Z,10008
2019-04-10T12:03:15.219Z,9620
2019-04-10T12:04:19.278Z,9620
2019-04-10T12:05:25.729Z,9628
2019-04-10T12:11:23.096Z,10136
2019-04-10T12:12:11.495Z,9964
2019-04-10T12:13:10.626Z,9728
2019-04-10T12:14:13.232Z,9536
2019-04-10T12:15:10.415Z,9456
2019-04-10T12:16:12.568Z,9328
2019-04-10T12:17:12.079Z,9152
2019-04-10T12:18:11.609Z,9048
2019-04-10T12:19:11.748Z,9072
2019-04-10T12:20:11.738Z,9108
2019-04-10T12:21:11.872Z,9084
2019-04-10T12:22:12.231Z,9072
2019-04-10T12:23:13.242Z,9052
2019-04-10T12:24:11.949Z,8808
2019-04-10T12:25:12.439Z,8552
2019-04-10T12:26:11.918Z,8452
2019-04-10T12:27:12.352Z,8308
2019-04-10T12:28:11.998Z,8300
2019-04-10T12:29:11.137Z,8412
2019-04-10T12:30:11.252Z,8420
2019-04-10T12:31:10.657Z,8368
2019-04-10T12:32:11.124Z,8296
2019-04-10T12:33:12.063Z,8192
2019-04-10T12:34:11.441Z,8124
2019-04-10T12:35:11.684Z,8084
2019-04-10T12:36:12.608Z,8004
2019-04-10T12:37:11.296Z,7948
2019-04-10T12:38:17.928Z,7872
2019-04-10T12:39:12.051Z,7788
2019-04-10T12:40:11.994Z,7652
2019-04-10T12:41:11.410Z,7412
2019-04-10T12:42:12.172Z,7256
2019-04-10T12:43:13.262Z,7176
2019-04-10T12:44:11.983Z,7120
2019-04-10T12:45:13.795Z,7104
2019-04-10T12:46:12.788Z,7108
2019-04-10T12:47:10.766Z,7136
2019-04-10T12:48:11.051Z,7212
2019-04-10T12:49:12.143Z,7328
2019-04-10T12:50:10.612Z,7424
2019-04-10T12:51:11.785Z,7500
2019-04-10T12:52:10.786Z,7608
2019-04-10T12:53:11.884Z,7676
2019-04-10T12:54:12.744Z,7600
2019-04-10T12:55:12.216Z,7456
2019-04-10T12:56:12.359Z,7352
2019-04-10T12:57:11.090Z,7280
2019-04-10T12:58:23.097Z,7176
2019-04-10T12:59:11.708Z,7124
2019-04-10T13:00:12.155Z,7032
2019-04-10T13:01:12.143Z,6940
2019-04-10T13:02:14.722Z,6900
2019-04-10T13:03:14.591Z,6940
2019-04-10T13:04:11.644Z,7008
2019-04-10T13:05:13.227Z,7140
2019-04-10T13:06:12.245Z,7284
2019-04-10T13:07:11.948Z,7384
2019-04-10T13:09:02.675Z,7408
2019-04-10T13:09:22.620Z,7376
2019-04-10T13:10:20.774Z,7304
2019-04-10T13:11:20.419Z,7208
2019-04-10T13:12:20.842Z,7104
2019-04-10T13:13:21.984Z,7088
2019-04-10T13:14:19.521Z,7232
2019-04-10T13:15:20.012Z,7448
2019-04-10T13:16:20.248Z,7628
2019-04-10T13:17:20.233Z,7812
2019-04-10T13:18:20.439Z,7992
2019-04-10T13:19:21.330Z,8176
2019-04-10T13:20:20.439Z,8276
2019-04-10T13:21:20.242Z,8372
2019-04-10T13:22:19.803Z,8532
2019-04-10T13:23:22.890Z,8724
2019-04-10T13:24:20.218Z,8848
2019-04-10T13:25:21.910Z,8892
2019-04-10T13:26:20.393Z,8940
2019-04-10T13:27:20.563Z,9024
2019-04-10T13:28:19.957Z,9008
2019-04-10T13:29:21.057Z,8872
2019-04-10T13:30:21.359Z,8632
2019-04-10T13:31:19.857Z,8456
2019-04-10T13:32:23.390Z,8320
2019-04-10T13:33:19.003Z,8224
2019-04-10T13:34:21.491Z,8132
2019-04-10T13:35:21.932Z,7996
2019-04-10T13:36:20.263Z,7768
2019-04-10T13:37:20.497Z,7592
2019-04-10T13:38:39.161Z,7652
2019-04-10T13:39:23.147Z,7792
2019-04-10T13:40:20.107Z,8000
2019-04-10T13:41:20.640Z,8240
2019-04-10T13:42:20.827Z,8416
2019-04-10T13:43:20.393Z,8408
2019-04-10T13:44:19.272Z,8336
2019-04-10T13:45:19.787Z,8140
2019-04-10T13:46:20.930Z,7908
2019-04-10T13:47:20.334Z,7668
2019-04-10T13:48:21.107Z,7480
2019-04-10T13:49:20.499Z,7340
2019-04-10T13:50:19.622Z,7208
2019-04-10T13:51:20.028Z,7056
2019-04-10T13:52:20.254Z,6864
2019-04-10T13:53:20.353Z,6688
2019-04-10T13:54:23.437Z,6540
2019-04-10T13:55:19.462Z,6456
2019-04-10T13:56:19.797Z,6400
2019-04-10T13:57:20.479Z,6384
2019-04-10T13:58:19.861Z,6428
2019-04-10T13:59:22.624Z,6532
2019-04-10T14:00:19.797Z,6660
2019-04-10T14:01:20.265Z,6820
2019-04-10T14:02:19.923Z,6952
2019-04-10T14:03:19.746Z,7040
2019-04-10T14:04:18.970Z,7092
2019-04-10T14:05:20.518Z,7148